Time;durP1;ratioP1;P1;durP2;ratioP2;P2;SDS_P1;SDS_P2;PMS_P1;PMS_P2;Temp;Humidity;BMP_temperature;BMP_pressure;BME280_temperature;BME280_humidity;BME280_pressure;Samples;Min_cycle;Max_cycle;Signal;HPM_P1;HPM_P2
2024/03/20 00:00:23;;;;;;;17.13;10.80;;;;;;;10.09;80.98;101158.81;5008876;28;20614;-76
2024/03/20 00:02:50;;;;;;;16.70;11.30;;;;;;;10.04;81.45;101174.16;5009305;28;20208;-77
2024/03/20 00:05:17;;;;;;;18.47;10.80;;;;;;;9.99;81.92;101170.91;5008149;28;20319;-77
2024/03/20 00:07:45;;;;;;;18.23;11.23;;;;;;;9.98;82.40;101171.00;5008782;28;20568;-77
2024/03/20 00:10:13;;;;;;;20.63;11.67;;;;;;;9.95;82.71;101169.34;5009589;28;20231;-76
2024/03/20 00:12:39;;;;;;;19.03;12.33;;;;;;;9.94;83.05;101174.75;5008889;28;20238;-77
2024/03/20 00:15:08;;;;;;;19.97;12.43;;;;;;;9.92;83.39;101180.13;5000556;28;20806;-77
2024/03/20 00:17:35;;;;;;;16.50;10.93;;;;;;;9.91;83.45;101170.44;5008392;28;20238;-77
2024/03/20 00:20:02;;;;;;;16.07;11.50;;;;;;;9.90;83.80;101174.03;5008434;28;20271;-76
2024/03/20 00:22:30;;;;;;;19.53;11.83;;;;;;;9.89;84.08;101176.78;5008429;28;20624;-77
2024/03/20 00:24:58;;;;;;;17.97;11.73;;;;;;;9.87;84.34;101173.31;5007661;28;20310;-76
2024/03/20 00:27:25;;;;;;;16.93;12.00;;;;;;;9.83;84.70;101167.34;5007359;28;20215;-76
2024/03/20 00:29:51;;;;;;;18.97;12.07;;;;;;;9.83;84.85;101174.44;5007296;28;20671;-77
2024/03/20 00:32:18;;;;;;;19.70;11.43;;;;;;;9.83;85.07;101166.47;5007273;28;20294;-77
2024/03/20 00:34:48;;;;;;;24.13;12.33;;;;;;;9.83;85.37;101170.00;5007873;28;20229;-77
2024/03/20 00:37:14;;;;;;;22.43;11.37;;;;;;;9.81;85.46;101168.34;5007106;28;20219;-78
2024/03/20 00:39:41;;;;;;;18.13;11.70;;;;;;;9.80;85.56;101167.50;5008426;28;20883;-78
2024/03/20 00:42:09;;;;;;;20.73;12.17;;;;;;;9.80;85.54;101163.97;5008289;28;20286;-77
2024/03/20 00:44:36;;;;;;;18.13;11.20;;;;;;;9.81;85.71;101163.03;5008089;28;20591;-78
2024/03/20 00:47:04;;;;;;;17.63;11.13;;;;;;;9.82;85.90;101159.44;5007376;28;20239;-78
2024/03/20 00:49:30;;;;;;;19.73;11.63;;;;;;;9.81;85.95;101157.72;5009305;28;20234;-78
2024/03/20 00:51:57;;;;;;;21.40;11.70;;;;;;;9.81;86.13;101155.91;5006730;28;20314;-77
2024/03/20 00:54:24;;;;;;;19.60;11.77;;;;;;;9.82;86.39;101156.78;5007660;28;20635;-77
2024/03/20 00:56:50;;;;;;;21.57;12.17;;;;;;;9.83;86.42;101163.81;5008374;28;20207;-78
2024/03/20 00:59:20;;;;;;;18.83;11.73;;;;;;;9.82;86.80;101154.97;5006871;28;20659;-78
2024/03/20 01:01:47;;;;;;;19.07;11.83;;;;;;;9.82;86.89;101154.97;5007141;28;20400;-77
2024/03/20 01:04:14;;;;;;;19.07;12.33;;;;;;;9.83;87.32;101156.69;5008003;28;20203;-77
2024/03/20 01:06:40;;;;;;;19.37;11.53;;;;;;;9.82;87.08;101156.78;5007187;28;20226;-78
2024/03/20 01:09:07;;;;;;;20.43;11.60;;;;;;;9.80;87.40;101150.66;5007901;28;20314;-77
2024/03/20 01:11:34;;;;;;;19.13;11.57;;;;;;;9.80;87.20;101151.53;5007652;28;20758;-77
2024/03/20 01:14:01;;;;;;;24.27;12.47;;;;;;;9.80;87.56;101146.22;5006869;28;20216;-78
2024/03/20 01:16:29;;;;;;;19.57;12.07;;;;;;;9.81;87.49;101142.59;5004557;28;20267;-78
2024/03/20 01:18:55;;;;;;;18.20;11.70;;;;;;;9.83;87.57;101147.84;5007654;28;20298;-77
2024/03/20 01:21:22;;;;;;;20.13;12.27;;;;;;;9.85;87.39;101144.19;5005868;28;20298;-77
2024/03/20 01:23:49;;;;;;;19.80;12.17;;;;;;;9.84;87.25;101144.25;5003279;28;20296;-78
2024/03/20 01:26:15;;;;;;;20.97;11.97;;;;;;;9.86;87.28;101140.53;5004440;28;20310;-78
2024/03/20 01:28:42;;;;;;;22.40;12.47;;;;;;;9.88;87.14;101140.47;5004810;28;20643;-77
2024/03/20 01:31:09;;;;;;;19.00;12.23;;;;;;;9.90;86.73;101133.28;5005121;28;20310;-78
2024/03/20 01:33:37;;;;;;;19.07;11.70;;;;;;;9.90;87.06;101126.16;5007698;28;20751;-77
2024/03/20 01:36:04;;;;;;;19.93;12.40;;;;;;;9.92;87.23;101126.94;5006256;28;20322;-77
2024/03/20 01:38:31;;;;;;;18.90;11.37;;;;;;;9.92;87.26;101132.25;5005637;28;20211;-78
2024/03/20 01:40:57;;;;;;;17.53;11.60;;;;;;;9.93;87.47;101128.66;5006822;28;20303;-77
2024/03/20 01:43:24;;;;;;;20.63;11.97;;;;;;;9.90;87.80;101127.94;5005126;28;20675;-77
2024/03/20 01:45:51;;;;;;;19.17;12.03;;;;;;;9.91;88.33;101133.19;5007511;28;20694;-78
2024/03/20 01:48:18;;;;;;;19.50;13.07;;;;;;;9.91;88.59;101124.34;5006058;28;20729;-78
2024/03/20 01:50:46;;;;;;;18.37;12.07;;;;;;;9.90;89.00;101107.53;5007405;28;20314;-77
2024/03/20 01:53:15;;;;;;;21.07;11.90;;;;;;;9.92;88.01;101107.44;5001354;28;20212;-78
2024/03/20 01:55:42;;;;;;;16.90;10.83;;;;;;;9.95;86.97;101110.81;5002801;28;20312;-77
2024/03/20 01:58:08;;;;;;;19.70;12.47;;;;;;;9.95;86.30;101108.16;5005917;28;20206;-78
2024/03/20 02:00:35;;;;;;;18.37;11.57;;;;;;;9.95;85.86;101107.28;5007168;28;20237;-78
2024/03/20 02:03:03;;;;;;;23.50;12.73;;;;;;;9.94;85.47;101111.75;5006095;28;20305;-78
2024/03/20 02:05:30;;;;;;;19.93;11.37;;;;;;;9.94;85.57;101108.22;5004780;28;20351;-78
2024/03/20 02:07:58;;;;;;;17.00;11.20;;;;;;;9.93;85.20;101112.69;5009032;28;20306;-77
2024/03/20 02:10:26;;;;;;;18.73;11.37;;;;;;;9.93;84.81;101104.69;5004930;28;20317;-77
2024/03/20 02:13:02;;;;;;;23.10;12.23;;;;;;;9.94;84.93;101108.22;5006121;28;20231;-78
2024/03/20 02:15:29;;;;;;;20.37;11.77;;;;;;;9.92;84.70;101113.63;5000799;28;20233;-78
2024/03/20 02:17:56;;;;;;;19.60;11.87;;;;;;;9.90;84.47;101119.97;5001369;28;20563;-78
2024/03/20 02:20:23;;;;;;;16.00;11.30;;;;;;;9.89;84.24;101115.59;5000735;28;20306;-78
2024/03/20 02:22:51;;;;;;;18.03;11.80;;;;;;;9.86;84.46;101116.59;5006338;28;20212;-78
2024/03/20 02:25:18;;;;;;;20.50;12.07;;;;;;;9.85;84.69;101124.69;5004513;28;20317;-78
2024/03/20 02:27:46;;;;;;;18.87;11.67;;;;;;;9.83;84.48;101123.91;5005562;28;20290;-78
2024/03/20 02:30:13;;;;;;;19.07;11.27;;;;;;;9.82;84.59;101130.16;5006099;28;20241;-77
2024/03/20 02:32:41;;;;;;;19.33;12.53;;;;;;;9.80;84.79;101124.06;5007497;28;20768;-78
2024/03/20 02:35:09;;;;;;;19.23;12.03;;;;;;;9.80;85.08;101121.41;5004608;28;20321;-78
2024/03/20 02:37:36;;;;;;;20.03;12.07;;;;;;;9.77;85.12;101121.56;5006384;28;20231;-78
2024/03/20 02:40:05;;;;;;;18.50;11.40;;;;;;;9.74;85.01;101127.91;5006397;28;20590;-77
2024/03/20 02:42:32;;;;;;;14.60;10.47;;;;;;;9.72;85.21;101127.97;5005074;28;20214;-78
2024/03/20 02:44:58;;;;;;;17.87;12.23;;;;;;;9.70;85.13;101127.19;5005252;28;20303;-78
2024/03/20 02:47:25;;;;;;;16.23;10.63;;;;;;;9.70;85.15;101123.66;5003575;28;20295;-78
2024/03/20 02:49:53;;;;;;;17.63;11.77;;;;;;;9.69;85.18;101122.81;5004957;28;20322;-78
2024/03/20 02:52:20;;;;;;;16.87;11.20;;;;;;;9.66;85.04;101123.00;5006324;28;20569;-77
2024/03/20 02:54:46;;;;;;;18.77;11.33;;;;;;;9.65;85.16;101126.59;5004603;28;20227;-78
2024/03/20 02:57:15;;;;;;;22.63;12.00;;;;;;;9.63;84.91;101123.16;5003578;28;20299;-78
2024/03/20 02:59:41;;;;;;;18.83;12.13;;;;;;;9.63;84.80;101123.16;5004765;28;20282;-78
2024/03/20 03:02:08;;;;;;;18.60;10.50;;;;;;;9.61;84.85;101122.38;5006049;28;20737;-78
2024/03/20 03:04:34;;;;;;;17.70;11.53;;;;;;;9.60;85.15;101123.31;5004097;28;20262;-77
2024/03/20 03:07:01;;;;;;;19.00;11.00;;;;;;;9.59;85.37;101121.59;5006687;28;20338;-78
2024/03/20 03:09:28;;;;;;;18.37;11.57;;;;;;;9.57;85.55;101123.47;5003289;28;20749;-78
2024/03/20 03:11:55;;;;;;;18.67;11.40;;;;;;;9.55;85.57;101119.16;5004564;28;20298;-78
2024/03/20 03:14:22;;;;;;;21.23;11.83;;;;;;;9.53;85.40;101121.88;5007471;28;20270;-77
2024/03/20 03:16:49;;;;;;;15.80;10.47;;;;;;;9.53;85.50;101126.34;5008037;28;20211;-78
2024/03/20 03:19:16;;;;;;;17.20;11.00;;;;;;;9.49;85.68;101128.31;5009036;28;20290;-77
2024/03/20 03:21:42;;;;;;;26.97;11.43;;;;;;;9.46;85.51;101120.50;5009681;28;20342;-78
2024/03/20 03:24:09;;;;;;;16.63;11.07;;;;;;;9.43;86.00;101120.66;5008685;28;20642;-78
2024/03/20 03:26:37;;;;;;;19.97;11.83;;;;;;;9.41;85.68;101119.88;5004037;28;20232;-77
2024/03/20 03:29:04;;;;;;;15.70;10.67;;;;;;;9.39;86.48;101122.59;5006586;28;20214;-78
2024/03/20 03:31:33;;;;;;;16.27;10.40;;;;;;;9.37;86.69;101119.16;5003680;28;20581;-78
2024/03/20 03:33:59;;;;;;;17.47;10.97;;;;;;;9.36;86.45;101122.75;5008177;28;20207;-78
2024/03/20 03:36:26;;;;;;;15.47;10.37;;;;;;;9.34;86.80;101121.09;5007791;28;20322;-77
2024/03/20 03:38:53;;;;;;;16.00;11.20;;;;;;;9.33;87.02;101117.59;5006934;28;20203;-78
2024/03/20 03:41:21;;;;;;;18.27;11.20;;;;;;;9.33;86.78;101114.06;5007924;28;20258;-78
2024/03/20 03:43:47;;;;;;;16.27;11.10;;;;;;;9.31;86.84;101115.97;5007150;28;20210;-78
2024/03/20 03:46:15;;;;;;;17.30;10.17;;;;;;;9.29;87.11;101109.88;5009247;28;20230;-77
2024/03/20 03:48:43;;;;;;;15.60;10.20;;;;;;;9.27;86.74;101112.59;5005791;28;20496;-77
2024/03/20 03:51:10;;;;;;;19.17;11.10;;;;;;;9.25;86.72;101121.59;5009716;28;20254;-78
2024/03/20 03:53:38;;;;;;;17.43;10.63;;;;;;;9.23;86.87;101115.47;5008133;28;20299;-78
2024/03/20 03:56:05;;;;;;;17.10;11.33;;;;;;;9.19;87.06;101117.44;5007664;28;20506;-78
2024/03/20 03:58:31;;;;;;;18.57;11.07;;;;;;;9.18;87.14;101114.84;5009143;28;20211;-77
2024/03/20 04:00:58;;;;;;;20.40;12.07;;;;;;;9.15;87.63;101115.00;5009256;28;20291;-77
2024/03/20 04:03:27;;;;;;;17.10;10.37;;;;;;;9.11;86.95;101116.97;5008374;28;20289;-77
2024/03/20 04:05:58;;;;;;;18.00;10.70;;;;;;;9.07;87.29;101111.88;5007801;28;20269;-77
2024/03/20 04:08:25;;;;;;;18.63;10.53;;;;;;;9.04;87.37;101108.44;5008200;28;20290;-77
2024/03/20 04:10:51;;;;;;;20.13;11.53;;;;;;;9.01;87.93;101113.88;5008219;28;20753;-77
2024/03/20 04:13:18;;;;;;;22.20;12.13;;;;;;;8.99;87.54;101123.72;5007347;28;20290;-77
2024/03/20 04:15:45;;;;;;;21.43;12.53;;;;;;;8.96;87.75;101115.91;5007598;28;20245;-76
2024/03/20 04:18:11;;;;;;;19.07;12.97;;;;;;;8.95;88.06;101118.66;5007808;28;20298;-78
2024/03/20 04:20:38;;;;;;;15.37;11.17;;;;;;;8.94;88.42;101120.47;5007782;28;20302;-78
2024/03/20 04:23:06;;;;;;;19.20;10.73;;;;;;;8.94;88.31;101122.25;5007492;28;20317;-77
2024/03/20 04:25:33;;;;;;;17.40;11.47;;;;;;;8.92;87.72;101122.31;5007456;28;20230;-77
2024/03/20 04:27:59;;;;;;;17.77;11.43;;;;;;;8.92;88.48;101116.16;5005498;28;20290;-77
2024/03/20 04:30:26;;;;;;;20.43;12.30;;;;;;;8.91;87.84;101112.63;5007263;28;20322;-77
2024/03/20 04:32:52;;;;;;;18.90;11.03;;;;;;;8.91;88.41;101117.94;5008177;28;20990;-77
2024/03/20 04:35:19;;;;;;;19.67;11.60;;;;;;;8.92;88.42;101118.81;5006967;28;20269;-77
2024/03/20 04:37:46;;;;;;;20.73;10.93;;;;;;;8.91;88.59;101119.75;5007837;28;20203;-78
2024/03/20 04:40:14;;;;;;;19.33;11.57;;;;;;;8.90;89.10;101126.84;5007485;28;20313;-77
2024/03/20 04:42:41;;;;;;;18.93;10.80;;;;;;;8.90;89.15;101121.53;5007884;28;20286;-78
2024/03/20 04:45:10;;;;;;;18.27;11.23;;;;;;;8.91;88.98;101125.91;5006684;28;20227;-78
2024/03/20 04:47:37;;;;;;;17.93;10.73;;;;;;;8.90;89.52;101126.84;5007010;28;20290;-78
2024/03/20 04:50:06;;;;;;;19.13;11.83;;;;;;;8.90;90.06;101126.84;5007861;28;20235;-77
2024/03/20 04:52:32;;;;;;;15.80;10.83;;;;;;;8.91;89.90;101122.41;5004320;28;20207;-77
2024/03/20 04:54:59;;;;;;;15.33;11.20;;;;;;;8.90;90.14;101121.53;5008631;28;20357;-77
2024/03/20 04:57:28;;;;;;;17.27;10.73;;;;;;;8.90;90.45;101118.88;5008819;28;20619;-78
2024/03/20 04:59:55;;;;;;;18.27;11.50;;;;;;;8.91;90.29;101123.25;5008200;28;20245;-78
2024/03/20 05:02:22;;;;;;;19.17;12.03;;;;;;;8.92;90.88;101124.97;5007536;28;20729;-78
2024/03/20 05:04:48;;;;;;;16.20;10.50;;;;;;;8.92;91.18;101118.81;5007195;28;20329;-78
2024/03/20 05:07:15;;;;;;;19.23;11.53;;;;;;;8.92;91.04;101119.66;5005381;28;20533;-78
2024/03/20 05:09:42;;;;;;;19.37;11.93;;;;;;;8.92;91.31;101124.97;5007517;28;20268;-78
2024/03/20 05:12:08;;;;;;;21.17;11.77;;;;;;;8.93;91.43;101121.41;5007180;28;20617;-78
2024/03/20 05:14:36;;;;;;;17.27;11.27;;;;;;;8.93;90.90;101126.69;5004608;28;20207;-78
2024/03/20 05:17:03;;;;;;;20.60;11.20;;;;;;;8.94;91.29;101122.25;5007506;28;20213;-77
2024/03/20 05:19:29;;;;;;;18.30;12.20;;;;;;;8.93;91.04;101126.69;5006124;28;20207;-77
2024/03/20 05:21:56;;;;;;;18.70;11.60;;;;;;;8.93;91.44;101123.19;5005980;28;20290;-78
2024/03/20 05:24:21;;;;;;;19.83;12.80;;;;;;;8.94;91.53;101131.09;5007701;28;20203;-77
2024/03/20 05:26:48;;;;;;;18.13;11.53;;;;;;;8.94;91.30;101133.75;5005148;28;20198;-77
2024/03/20 05:29:13;;;;;;;19.03;12.10;;;;;;;8.96;91.10;101131.84;5007160;28;20205;-78
2024/03/20 05:31:42;;;;;;;19.00;12.40;;;;;;;8.96;91.79;101134.50;5006231;28;20226;-77
2024/03/20 05:34:10;;;;;;;20.60;11.77;;;;;;;8.96;91.47;101131.84;5007642;28;20206;-78
2024/03/20 05:36:36;;;;;;;18.03;10.87;;;;;;;8.97;92.41;101138.88;5004940;28;20347;-77
2024/03/20 05:39:03;;;;;;;19.23;11.67;;;;;;;8.98;91.96;101140.59;5006130;28;20232;-78
2024/03/20 05:41:29;;;;;;;19.17;11.60;;;;;;;8.98;92.33;101145.91;5007274;28;20285;-78
2024/03/20 05:43:55;;;;;;;20.27;12.20;;;;;;;8.99;92.38;101147.63;5005213;28;21703;-77
2024/03/20 05:46:22;;;;;;;17.87;11.73;;;;;;;9.00;92.59;101138.72;5007373;28;20235;-78
2024/03/20 05:48:49;;;;;;;19.33;11.10;;;;;;;9.01;92.57;101139.59;5004497;28;20297;-78
2024/03/20 05:51:16;;;;;;;19.47;12.40;;;;;;;9.01;92.47;101135.16;5008052;28;20231;-78
2024/03/20 05:53:41;;;;;;;19.50;11.37;;;;;;;9.02;92.54;101139.53;5006359;28;20235;-77
2024/03/20 05:56:08;;;;;;;18.33;11.30;;;;;;;9.04;92.55;101139.44;5006545;28;20315;-78
2024/03/20 05:58:34;;;;;;;19.17;12.53;;;;;;;9.04;92.71;101142.97;5003672;28;20769;-77
2024/03/20 06:01:00;;;;;;;19.03;11.83;;;;;;;9.05;92.57;101147.34;5006151;28;20333;-78
2024/03/20 06:03:26;;;;;;;16.73;10.60;;;;;;;9.05;93.43;101143.84;5007380;28;20295;-78
2024/03/20 06:05:54;;;;;;;21.43;11.67;;;;;;;9.07;93.12;101138.44;5006599;28;20794;-78
2024/03/20 06:08:21;;;;;;;21.33;12.00;;;;;;;9.09;92.98;101147.19;5005384;28;20231;-78
2024/03/20 06:10:49;;;;;;;20.43;12.73;;;;;;;9.09;92.92;101153.38;5005550;28;20349;-78
2024/03/20 06:13:14;;;;;;;22.67;13.57;;;;;;;9.10;93.12;101149.78;5007511;28;20212;-77
2024/03/20 06:15:41;;;;;;;17.43;10.87;;;;;;;9.12;93.23;101158.56;5003842;28;20322;-76
2024/03/20 06:18:07;;;;;;;18.87;11.87;;;;;;;9.14;93.30;101161.09;5006778;28;20638;-77
2024/03/20 06:20:33;;;;;;;18.70;11.50;;;;;;;9.15;93.43;101157.50;5005895;28;20199;-77
2024/03/20 06:23:00;;;;;;;19.07;11.43;;;;;;;9.16;93.50;101153.91;5003958;28;20210;-77
2024/03/20 06:25:27;;;;;;;20.63;11.60;;;;;;;9.18;93.80;101154.69;5006027;28;20762;-76
2024/03/20 06:27:53;;;;;;;18.60;11.80;;;;;;;9.19;93.50;101161.75;5006165;28;20291;-77
2024/03/20 06:30:21;;;;;;;18.80;11.83;;;;;;;9.19;93.55;101159.94;5007174;28;20227;-78
2024/03/20 06:32:46;;;;;;;18.53;11.90;;;;;;;9.21;93.91;101167.84;5004994;28;20199;-77
2024/03/20 06:35:13;;;;;;;17.70;11.67;;;;;;;9.21;93.60;101168.72;5077657;22;20208;-72
2024/03/20 06:37:39;;;;;;;20.50;12.80;;;;;;;9.21;94.08;101171.38;5022461;28;20261;-72
2024/03/20 06:40:10;;;;;;;20.73;12.00;;;;;;;9.23;94.03;101176.59;5023664;28;20210;-72
2024/03/20 06:42:37;;;;;;;18.50;11.80;;;;;;;9.24;94.07;101178.34;5021258;28;20202;-72
2024/03/20 06:45:05;;;;;;;20.17;12.07;;;;;;;9.26;94.29;101179.97;5022320;28;20199;-72
2024/03/20 06:47:31;;;;;;;21.40;11.67;;;;;;;9.28;93.90;101172.78;5000638;28;20206;-72
2024/03/20 06:49:57;;;;;;;20.17;12.37;;;;;;;9.31;94.57;101185.06;5007988;28;20294;-72
2024/03/20 06:52:23;;;;;;;18.87;12.20;;;;;;;9.32;94.33;101173.47;5010190;28;20202;-72
2024/03/20 06:54:51;;;;;;;18.80;11.47;;;;;;;9.37;94.43;101174.13;5007774;28;20215;-72
2024/03/20 06:57:18;;;;;;;19.70;12.53;;;;;;;9.40;94.32;101176.63;5008364;28;20217;-72
2024/03/20 06:59:45;;;;;;;19.67;11.77;;;;;;;9.41;93.93;101162.41;5006965;28;20675;-72
2024/03/20 07:02:11;;;;;;;19.60;11.50;;;;;;;9.45;94.17;101163.97;5006003;28;20282;-72
2024/03/20 07:04:37;;;;;;;17.23;11.90;;;;;;;9.49;94.22;101165.53;5006860;28;20299;-72
2024/03/20 07:07:03;;;;;;;18.43;11.33;;;;;;;9.54;94.47;101168.81;5006906;28;20780;-72
2024/03/20 07:09:30;;;;;;;18.90;12.30;;;;;;;9.60;94.92;101165.00;5009183;28;20322;-72
2024/03/20 07:11:56;;;;;;;18.83;11.57;;;;;;;9.63;94.55;101168.34;5006711;28;20314;-72
2024/03/20 07:14:25;;;;;;;24.20;11.83;;;;;;;9.69;94.40;101168.03;5008319;28;20638;-72
2024/03/20 07:16:51;;;;;;;18.87;11.77;;;;;;;9.75;94.30;101164.19;5008295;28;20230;-72
2024/03/20 07:19:18;;;;;;;18.47;12.10;;;;;;;9.80;94.84;101163.97;5007811;28;20222;-73
2024/03/20 07:21:44;;;;;;;17.87;11.83;;;;;;;9.88;95.60;101165.28;5008287;28;20199;-72
2024/03/20 07:24:11;;;;;;;20.13;11.33;;;;;;;9.94;94.34;101167.63;5007429;28;20301;-72
2024/03/20 07:26:38;;;;;;;21.00;11.07;;;;;;;10.02;93.51;101169.91;5007347;28;20601;-72
2024/03/20 07:29:05;;;;;;;16.57;11.03;;;;;;;10.07;92.45;101162.50;5003877;28;20227;-73
2024/03/20 07:31:33;;;;;;;18.40;10.70;;;;;;;10.17;90.97;101158.44;5009254;28;20769;-72
2024/03/20 07:33:59;;;;;;;15.23;9.10;;;;;;;10.25;89.92;101158.88;5008527;28;20631;-72
2024/03/20 07:36:26;;;;;;;17.53;10.60;;;;;;;10.39;88.33;101161.66;5007507;28;20319;-72
2024/03/20 07:38:53;;;;;;;18.63;11.10;;;;;;;10.51;86.78;101168.13;5008257;28;20789;-72
2024/03/20 07:41:18;;;;;;;15.23;9.97;;;;;;;10.63;86.15;101166.59;5007236;28;20752;-72
2024/03/20 07:43:45;;;;;;;18.80;11.23;;;;;;;10.75;84.84;101174.75;5008372;28;20631;-72
2024/03/20 07:46:13;;;;;;;14.57;9.70;;;;;;;10.87;83.51;101177.69;5010133;28;20255;-72
2024/03/20 07:48:42;;;;;;;15.60;10.10;;;;;;;10.97;83.07;101176.22;5008939;28;20229;-72
2024/03/20 07:51:08;;;;;;;14.23;10.73;;;;;;;11.06;82.76;101181.91;5009337;28;20238;-72
2024/03/20 07:53:35;;;;;;;12.10;8.87;;;;;;;11.16;82.02;101170.69;5007190;28;20210;-72
2024/03/20 07:56:00;;;;;;;13.13;9.23;;;;;;;11.25;81.73;101181.72;5007930;28;20226;-72
2024/03/20 07:58:27;;;;;;;12.90;9.40;;;;;;;11.37;81.76;101185.47;5005796;28;20726;-72
2024/03/20 08:00:53;;;;;;;14.77;10.53;;;;;;;11.48;81.83;101186.53;5008599;28;20295;-72
2024/03/20 08:03:21;;;;;;;18.10;9.73;;;;;;;11.61;81.42;101184.03;5004430;28;20625;-72
2024/03/20 08:05:48;;;;;;;14.50;9.77;;;;;;;11.71;79.47;101185.19;5007317;28;20229;-73
2024/03/20 08:08:15;;;;;;;17.07;10.77;;;;;;;11.82;80.09;101197.97;5006568;28;20234;-73
2024/03/20 08:10:41;;;;;;;22.93;12.53;;;;;;;11.93;82.26;101183.94;5008540;28;20235;-73
2024/03/20 08:13:09;;;;;;;16.07;10.13;;;;;;;12.03;82.12;101196.63;5007633;28;20203;-72
2024/03/20 08:15:36;;;;;;;15.67;11.13;;;;;;;12.12;81.88;101192.56;5005985;28;20223;-72
2024/03/20 08:18:02;;;;;;;15.90;10.67;;;;;;;12.18;81.94;101187.69;5003458;28;20305;-72
2024/03/20 08:20:29;;;;;;;15.93;11.07;;;;;;;12.26;82.36;101200.59;5006539;28;20346;-72
2024/03/20 08:22:56;;;;;;;17.30;11.10;;;;;;;12.33;82.66;101196.59;5007051;28;20750;-72
2024/03/20 08:25:23;;;;;;;15.00;10.90;;;;;;;12.39;82.86;101200.66;5005837;28;20310;-72
2024/03/20 08:27:49;;;;;;;15.13;10.83;;;;;;;12.41;82.94;101202.31;5004157;28;20226;-72
2024/03/20 08:30:15;;;;;;;16.60;10.80;;;;;;;12.47;82.51;101203.75;5005482;28;20298;-72
2024/03/20 08:32:41;;;;;;;12.57;9.97;;;;;;;12.48;81.77;101206.31;5007738;28;20769;-72
2024/03/20 08:35:08;;;;;;;13.40;10.60;;;;;;;12.52;81.90;101202.50;5004923;28;20222;-72
2024/03/20 08:37:34;;;;;;;18.33;10.97;;;;;;;12.55;81.66;101203.25;5005698;28;20305;-72
2024/03/20 08:40:05;;;;;;;14.57;9.63;;;;;;;12.58;80.94;101216.41;5004224;28;20290;-72
2024/03/20 08:42:31;;;;;;;12.37;9.83;;;;;;;12.60;80.38;101202.00;5007620;28;20202;-72
2024/03/20 08:44:58;;;;;;;14.10;10.10;;;;;;;12.62;80.35;101205.44;5005180;28;20212;-71
2024/03/20 08:47:25;;;;;;;17.17;9.13;;;;;;;12.65;79.63;101209.75;5004053;28;20210;-72
2024/03/20 08:49:50;;;;;;;14.50;9.53;;;;;;;12.69;79.38;101208.59;5002803;28;20222;-72
2024/03/20 08:52:17;;;;;;;13.13;9.63;;;;;;;12.74;78.69;101215.34;5007161;28;20227;-72
2024/03/20 08:54:43;;;;;;;13.60;9.47;;;;;;;12.78;78.01;101213.34;5002824;28;20856;-71
2024/03/20 08:57:12;;;;;;;14.73;9.73;;;;;;;12.84;77.61;101202.28;5005266;28;20230;-72
2024/03/20 08:59:38;;;;;;;14.67;9.67;;;;;;;12.90;77.20;101204.53;5002496;28;20290;-71
2024/03/20 09:02:04;;;;;;;13.43;9.53;;;;;;;12.97;76.33;101205.88;4998460;28;20219;-72
2024/03/20 09:04:30;;;;;;;13.13;9.43;;;;;;;13.05;76.47;101205.38;5003495;28;20202;-72
2024/03/20 09:06:59;;;;;;;14.47;9.77;;;;;;;13.13;76.25;101209.25;5004817;28;20728;-72
2024/03/20 09:09:25;;;;;;;12.43;9.43;;;;;;;13.21;75.63;101200.78;5002141;28;20203;-72
2024/03/20 09:11:52;;;;;;;16.37;9.60;;;;;;;13.27;74.75;101207.53;5005340;28;20719;-72
2024/03/20 09:14:20;;;;;;;14.03;9.37;;;;;;;13.34;74.65;101206.19;5004995;28;20201;-72
2024/03/20 09:16:49;;;;;;;15.37;10.10;;;;;;;13.40;73.54;101200.44;5003764;28;20310;-71
2024/03/20 09:19:16;;;;;;;12.93;8.90;;;;;;;13.48;73.42;101203.44;5003622;28;20203;-71
2024/03/20 09:21:43;;;;;;;12.17;9.17;;;;;;;13.54;73.22;101200.38;5005698;28;20319;-72
2024/03/20 09:24:14;;;;;;;15.40;8.67;;;;;;;13.67;72.51;101192.38;5004287;28;20199;-72
2024/03/20 09:26:39;;;;;;;11.70;7.33;;;;;;;13.78;72.72;101193.38;5003903;28;20230;-72
2024/03/20 09:29:06;;;;;;;10.53;7.93;;;;;;;13.87;72.00;101192.72;5006262;28;20211;-72
2024/03/20 09:31:33;;;;;;;8.10;6.80;;;;;;;13.99;69.65;101184.81;5006481;28;20218;-71
2024/03/20 09:34:01;;;;;;;11.77;7.17;;;;;;;14.08;69.20;101187.72;5000519;28;20644;-71
2024/03/20 09:36:26;;;;;;;10.57;6.40;;;;;;;14.18;67.02;101179.88;5002867;28;20226;-71
2024/03/20 09:38:53;;;;;;;8.37;6.07;;;;;;;14.38;65.68;101183.84;5004410;28;20258;-71
2024/03/20 09:41:22;;;;;;;9.60;6.53;;;;;;;14.47;65.02;101184.09;5006352;28;20659;-71
2024/03/20 09:43:52;;;;;;;8.63;5.83;;;;;;;14.62;63.96;101182.13;5004410;28;20208;-71
2024/03/20 09:46:19;;;;;;;8.30;6.20;;;;;;;14.79;64.28;101183.59;5006271;28;20228;-71
2024/03/20 09:48:48;;;;;;;8.60;5.50;;;;;;;14.90;63.90;101186.34;5001626;28;20707;-71
2024/03/20 09:51:14;;;;;;;9.80;5.50;;;;;;;15.04;62.43;101180.84;5005576;28;20258;-71
2024/03/20 09:53:43;;;;;;;9.50;6.10;;;;;;;15.19;62.07;101182.41;5005251;28;20218;-71
2024/03/20 09:56:09;;;;;;;8.97;5.90;;;;;;;15.33;62.64;101180.50;5002285;28;20781;-71
2024/03/20 09:58:37;;;;;;;6.63;4.70;;;;;;;15.43;60.05;101184.22;5006366;28;20208;-72
2024/03/20 10:01:07;;;;;;;9.47;5.93;;;;;;;15.54;61.26;101181.59;5005311;28;20324;-72
2024/03/20 10:07:30;;;;;;;6.67;4.80;;;;;;;15.82;58.95;101170.47;4922579;29;20270;-71
2024/03/20 10:09:58;;;;;;;8.00;5.17;;;;;;;15.96;57.57;101169.41;4956508;28;20644;-71
2024/03/20 10:12:24;;;;;;;7.37;4.73;;;;;;;16.07;57.75;101169.44;5001272;28;20257;-71
2024/03/20 10:14:51;;;;;;;7.60;4.80;;;;;;;16.19;56.42;101162.25;5006409;28;20209;-72
2024/03/20 10:17:17;;;;;;;7.87;4.40;;;;;;;16.33;56.76;101159.31;5002220;28;20212;-71
2024/03/20 10:19:44;;;;;;;6.90;4.00;;;;;;;16.41;55.24;101164.09;5006909;28;20258;-72
2024/03/20 10:22:10;;;;;;;5.63;4.47;;;;;;;16.54;55.45;101157.59;5003649;28;20693;-72
2024/03/20 10:24:37;;;;;;;8.07;5.17;;;;;;;16.63;55.66;101162.28;5008616;28;20273;-72
2024/03/20 10:27:05;;;;;;;5.90;3.90;;;;;;;16.74;54.95;101165.94;5009318;28;20311;-71
2024/03/20 10:29:35;;;;;;;7.23;4.77;;;;;;;16.84;54.44;101161.53;5008112;28;20705;-72
2024/03/20 10:32:02;;;;;;;6.97;5.03;;;;;;;16.90;54.23;101161.88;5010433;28;20238;-71
2024/03/20 10:34:29;;;;;;;6.73;4.70;;;;;;;17.02;53.85;101157.31;5010335;28;20211;-71
2024/03/20 10:36:56;;;;;;;5.70;5.03;;;;;;;17.08;53.49;101162.19;5006037;28;20588;-72
2024/03/20 10:39:27;;;;;;;5.93;4.10;;;;;;;17.14;53.89;101152.78;5010046;28;20270;-71
2024/03/20 10:41:54;;;;;;;7.27;5.60;;;;;;;17.17;54.02;101153.38;5008118;28;20236;-72
2024/03/20 10:44:24;;;;;;;5.90;4.60;;;;;;;17.19;53.14;101142.50;5010038;28;20212;-71
2024/03/20 10:46:52;;;;;;;6.70;4.20;;;;;;;17.26;53.28;101144.53;5008675;28;20236;-72
2024/03/20 10:49:20;;;;;;;6.97;5.07;;;;;;;17.32;53.57;101148.53;5007960;28;20212;-72
2024/03/20 10:51:47;;;;;;;6.90;4.67;;;;;;;17.38;52.38;101147.19;5009430;28;20290;-72
2024/03/20 10:54:14;;;;;;;5.90;4.23;;;;;;;17.47;52.50;101144.56;5007219;28;20742;-72
2024/03/20 10:56:44;;;;;;;5.47;4.37;;;;;;;17.56;52.67;101142.91;5006016;28;20232;-72
2024/03/20 10:59:15;;;;;;;5.47;4.80;;;;;;;17.62;53.03;101145.94;5003095;28;20680;-72
2024/03/20 11:01:55;;;;;;;14.57;7.37;;;;;;;17.73;52.77;101146.94;5008322;28;20205;-71
2024/03/20 11:04:32;;;;;;;6.67;4.47;;;;;;;17.78;51.66;101147.38;5005448;28;20224;-71
2024/03/20 11:06:58;;;;;;;6.40;4.83;;;;;;;17.81;50.92;101145.28;4999293;28;20316;-71
2024/03/20 11:09:26;;;;;;;7.03;5.00;;;;;;;17.86;51.59;101148.44;5009050;28;20213;-72
2024/03/20 11:11:52;;;;;;;8.20;5.23;;;;;;;17.93;52.06;101154.13;5003230;28;20328;-71
2024/03/20 11:14:28;;;;;;;10.53;5.63;;;;;;;17.95;51.33;101144.94;5003250;28;20214;-71
2024/03/20 11:17:01;;;;;;;6.93;4.43;;;;;;;18.00;51.90;101148.09;5007662;28;20233;-72
2024/03/20 11:19:28;;;;;;;4.70;3.53;;;;;;;18.08;50.66;101141.19;5000201;28;20213;-71